createdAt,value
2023-01-02T00:04:47.322Z,98336.81
2023-01-02T00:09:50.031Z,98328.66
2023-01-02T00:14:54.290Z,98320.91
2023-01-02T00:19:57.442Z,98306.25
2023-01-02T00:25:00.151Z,98301.31
2023-01-02T00:30:04.775Z,98305.56
2023-01-02T00:35:08.551Z,98302.56
2023-01-02T00:40:14.042Z,98311.06
2023-01-02T00:45:18.556Z,98304.94
2023-01-02T00:50:21.645Z,98305.47
2023-01-02T00:55:24.449Z,98307.47
2023-01-02T01:00:28.642Z,98306.59
2023-01-02T01:05:31.565Z,98299.56
2023-01-02T01:10:37.048Z,98296.38
2023-01-02T01:15:41.271Z,98284.28
2023-01-02T01:20:44.081Z,98278.22
2023-01-02T01:25:46.813Z,98276.25
2023-01-02T01:30:52.275Z,98275.28
2023-01-02T01:35:55.049Z,98280.94
2023-01-02T01:40:57.762Z,98278.16
2023-01-02T01:46:03.694Z,98275.94
2023-01-02T01:51:07.062Z,98277.31
2023-01-02T01:56:13.607Z,98290.91
2023-01-02T02:01:19.583Z,98291.00
2023-01-02T02:06:22.503Z,98286.94
2023-01-02T02:11:25.339Z,98289.47
2023-01-02T02:16:41.183Z,98295.44
2023-01-02T02:22:02.429Z,98294.19
2023-01-02T02:27:23.678Z,98292.41
2023-01-02T02:32:33.312Z,98281.44
2023-01-02T02:37:43.683Z,98282.31
2023-01-02T02:42:56.843Z,98273.72
2023-01-02T02:48:08.369Z,98271.44
2023-01-02T02:53:16.397Z,98273.97
2023-01-02T02:58:21.677Z,98270.84
2023-01-02T03:03:25.763Z,98255.88
2023-01-02T03:08:39.219Z,98257.13
2023-01-02T03:13:49.410Z,98254.34
2023-01-02T03:18:57.537Z,98240.53
2023-01-02T03:24:05.467Z,98248.25
2023-01-02T03:29:13.796Z,98254.00
2023-01-02T03:34:23.077Z,98255.28
2023-01-02T03:39:30.378Z,98253.91
2023-01-02T03:44:39.083Z,98257.94
2023-01-02T03:49:47.236Z,98267.78
2023-01-02T03:54:50.688Z,98272.47
2023-01-02T04:00:01.583Z,98278.13
2023-01-02T04:05:16.338Z,98262.81
2023-01-02T04:10:19.695Z,98285.06
2023-01-02T04:15:25.617Z,98295.63
2023-01-02T04:20:35.398Z,98291.38
2023-01-02T04:25:43.384Z,98294.50
2023-01-02T04:30:53.412Z,98292.94
2023-01-02T04:35:57.727Z,98309.69
2023-01-02T04:41:01.181Z,98297.44
2023-01-02T04:46:04.220Z,98300.22
2023-01-02T04:51:08.934Z,98299.00
2023-01-02T04:56:11.962Z,98298.59
2023-01-02T05:01:18.151Z,98305.78
2023-01-02T05:06:22.504Z,98306.47
2023-01-02T05:11:25.309Z,98305.94
2023-01-02T05:16:28.050Z,98302.28
2023-01-02T05:21:49.767Z,98307.91
2023-01-02T05:26:52.487Z,98315.88
2023-01-02T05:31:56.006Z,98320.13
2023-01-02T05:37:01.440Z,98306.34
2023-01-02T05:42:04.960Z,98304.84
2023-01-02T05:47:12.177Z,98300.91
2023-01-02T05:52:20.415Z,98300.50
2023-01-02T05:57:23.189Z,98297.94
2023-01-02T06:02:26.457Z,98299.34
2023-01-02T06:07:30.677Z,98302.19
2023-01-02T06:12:33.480Z,98301.72
2023-01-02T06:17:36.209Z,98314.25
2023-01-02T06:22:41.017Z,98326.34
2023-01-02T06:27:44.005Z,98326.78
2023-01-02T06:32:46.947Z,98331.00
2023-01-02T06:37:51.239Z,98334.09
2023-01-02T06:42:59.873Z,98337.34
2023-01-02T06:48:04.387Z,98348.50
2023-01-02T06:53:10.296Z,98325.28
2023-01-02T06:58:19.244Z,98322.34
2023-01-02T07:03:22.635Z,98308.69
2023-01-02T07:08:26.810Z,98303.47
2023-01-02T07:13:32.835Z,98306.59
2023-01-02T07:18:36.488Z,98312.22
2023-01-02T07:23:42.062Z,98309.25
2023-01-02T07:28:44.908Z,98314.88
2023-01-02T07:33:48.118Z,98332.72
2023-01-02T07:38:54.143Z,98333.81
2023-01-02T07:43:56.987Z,98344.09
2023-01-02T07:49:00.276Z,98343.25
2023-01-02T07:54:05.140Z,98358.88
2023-01-02T07:59:09.136Z,98361.66
2023-01-02T08:04:12.051Z,98371.06
2023-01-02T08:09:16.133Z,98375.69
2023-01-02T08:14:23.654Z,98361.53
2023-01-02T08:19:27.819Z,98369.13
2023-01-02T08:24:35.923Z,98376.56
2023-01-02T08:29:38.952Z,98389.22
2023-01-02T08:34:45.558Z,98399.66
2023-01-02T08:39:50.204Z,98405.84
2023-01-02T08:44:53.820Z,98417.22
2023-01-02T08:49:57.675Z,98425.34
2023-01-02T08:55:04.144Z,98440.53
2023-01-02T09:00:09.837Z,98441.19
2023-01-02T09:05:12.593Z,98451.31
2023-01-02T09:10:17.674Z,98465.09
2023-01-02T09:15:20.778Z,98455.59
2023-01-02T09:20:24.136Z,98478.72
2023-01-02T09:25:29.208Z,98468.97
2023-01-02T09:30:34.375Z,98475.75
2023-01-02T09:35:42.501Z,98485.59
2023-01-02T09:40:55.201Z,98483.22
2023-01-02T09:46:02.564Z,98507.91
2023-01-02T09:51:09.766Z,98506.50
2023-01-02T09:56:22.506Z,98508.19
2023-01-02T10:01:34.290Z,98510.69
2023-01-02T10:06:43.694Z,98510.00
2023-01-02T10:12:01.985Z,98516.50
2023-01-02T10:17:09.187Z,98509.59
2023-01-02T10:22:19.201Z,98506.78
2023-01-02T10:27:29.392Z,98502.66
2023-01-02T10:32:35.875Z,98497.63
2023-01-02T10:37:38.667Z,98509.47
2023-01-02T10:42:43.122Z,98496.50
2023-01-02T10:47:47.633Z,98501.97
2023-01-02T10:52:53.170Z,98507.47
2023-01-02T10:58:04.525Z,98498.19
2023-01-02T11:03:16.224Z,98492.56
2023-01-02T11:08:22.606Z,98501.28
2023-01-02T11:13:27.479Z,98511.56
2023-01-02T11:18:34.237Z,98501.44
2023-01-02T11:23:41.574Z,98508.66
2023-01-02T11:28:46.504Z,98518.22
2023-01-02T11:33:51.112Z,98533.13
2023-01-02T11:38:57.259Z,98525.56
2023-01-02T11:44:03.904Z,98528.34
2023-01-02T11:49:11.781Z,98525.38
2023-01-02T11:54:20.046Z,98521.03
2023-01-02T11:59:32.038Z,98514.53
2023-01-02T12:04:35.211Z,98519.19
2023-01-02T12:09:48.612Z,98529.34
2023-01-02T12:15:09.804Z,98536.25
2023-01-02T12:20:42.457Z,98533.69
2023-01-02T12:26:02.997Z,98536.66
2023-01-02T12:31:30.418Z,98548.03
2023-01-02T12:36:59.983Z,98559.44
2023-01-02T12:42:18.664Z,98573.78
2023-01-02T12:47:46.092Z,98574.59
2023-01-02T12:53:02.454Z,98591.19
2023-01-02T12:58:09.318Z,98586.78
2023-01-02T13:03:36.788Z,98583.56
2023-01-02T13:08:50.712Z,98588.31
2023-01-02T13:13:56.797Z,98599.06
2023-01-02T13:19:18.627Z,98608.34
2023-01-02T13:24:24.904Z,98611.22
2023-01-02T13:29:30.393Z,98619.06
2023-01-02T13:34:36.059Z,98624.63
2023-01-02T13:39:49.687Z,98628.97
2023-01-02T13:44:57.010Z,98631.91
2023-01-02T13:50:11.419Z,98631.13
2023-01-02T13:55:33.907Z,98621.81
2023-01-02T14:00:39.284Z,98632.19
2023-01-02T14:06:01.713Z,98632.94
2023-01-02T14:11:11.059Z,98645.88
2023-01-02T14:16:43.072Z,98634.34
2023-01-02T14:21:50.476Z,98664.84
2023-01-02T14:26:56.017Z,98676.63
2023-01-02T14:32:06.700Z,98692.00
2023-01-02T14:37:12.121Z,98695.19
2023-01-02T14:42:45.837Z,98711.94
2023-01-02T14:47:53.442Z,98698.00
2023-01-02T14:53:05.554Z,98704.31
2023-01-02T14:58:17.481Z,98707.34
2023-01-02T15:03:28.162Z,98703.47
2023-01-02T15:08:39.951Z,98710.63
2023-01-02T15:14:03.929Z,98732.69
2023-01-02T15:19:17.049Z,98746.34
2023-01-02T15:24:24.225Z,98757.50
2023-01-02T15:29:27.643Z,98769.94
2023-01-02T15:34:33.513Z,98786.50
2023-01-02T15:39:42.114Z,98793.06
2023-01-02T15:45:03.432Z,98788.69
2023-01-02T15:50:13.428Z,98792.31
2023-01-02T15:55:19.758Z,98793.69
2023-01-02T16:00:49.181Z,98805.06
2023-01-02T16:05:55.964Z,98798.13
2023-01-02T16:11:05.240Z,98802.63
2023-01-02T16:16:15.970Z,98805.28
2023-01-02T16:21:20.488Z,98804.19
2023-01-02T16:26:33.345Z,98813.88
2023-01-02T16:31:52.576Z,98813.88
2023-01-02T16:37:31.401Z,98840.41
2023-01-02T16:42:37.908Z,98854.78
2023-01-02T16:47:43.990Z,98861.31
2023-01-02T16:52:51.323Z,98875.50
2023-01-02T16:57:55.532Z,98882.38
2023-01-02T17:02:58.362Z,98896.88
2023-01-02T17:08:01.265Z,98902.06
2023-01-02T17:13:05.812Z,98901.47
2023-01-02T17:18:09.172Z,98915.03
2023-01-02T17:23:11.927Z,98922.28
2023-01-02T17:28:16.760Z,98924.31
2023-01-02T17:33:20.532Z,98934.09
2023-01-02T17:38:23.279Z,98943.63
2023-01-02T17:43:27.417Z,98952.16
2023-01-02T17:48:31.566Z,98971.75
2023-01-02T17:53:36.182Z,98975.84
2023-01-02T17:58:40.613Z,98972.44
2023-01-02T18:03:44.312Z,98989.13
2023-01-02T18:08:47.602Z,98987.53
2023-01-02T18:13:53.771Z,99000.75
2023-01-02T18:18:56.827Z,99002.66
2023-01-02T18:24:02.397Z,99016.81
2023-01-02T18:29:12.792Z,99021.28
2023-01-02T18:34:46.368Z,99044.50
2023-01-02T18:39:43.510Z,99047.25
2023-01-02T18:44:48.206Z,99058.88
2023-01-02T18:49:51.258Z,99064.72
2023-01-02T18:54:59.744Z,99073.13
2023-01-02T19:00:18.609Z,99084.09
2023-01-02T19:05:25.735Z,99085.28
2023-01-02T19:10:39.660Z,99098.91
2023-01-02T19:15:45.531Z,99095.72
2023-01-02T19:20:53.708Z,99108.25
2023-01-02T19:25:57.936Z,99120.72
2023-01-02T19:31:02.665Z,99119.84
2023-01-02T19:36:09.359Z,99132.31
2023-01-02T19:41:12.551Z,99138.66
2023-01-02T19:46:16.754Z,99145.06
2023-01-02T19:51:19.713Z,99157.41
2023-01-02T19:56:22.632Z,99163.69
2023-01-02T20:01:26.843Z,99168.88
2023-01-02T20:06:30.644Z,99175.16
2023-01-02T20:11:51.147Z,99170.16
2023-01-02T20:16:55.236Z,99181.75
2023-01-02T20:21:58.952Z,99180.44
2023-01-02T20:27:03.545Z,99189.38
2023-01-02T20:32:08.565Z,99199.38
2023-01-02T20:37:11.498Z,99198.63
2023-01-02T20:42:14.215Z,99197.97
2023-01-02T20:47:18.798Z,99205.94
2023-01-02T20:52:21.848Z,99208.91
2023-01-02T20:57:32.108Z,99219.72
2023-01-02T21:02:38.404Z,99239.09
2023-01-02T21:07:41.321Z,99249.72
2023-01-02T21:13:01.787Z,99252.56
2023-01-02T21:18:06.083Z,99247.66
2023-01-02T21:23:09.188Z,99258.63
2023-01-02T21:28:13.768Z,99257.84
2023-01-02T21:33:19.822Z,99275.59
2023-01-02T21:38:25.024Z,99275.78
2023-01-02T21:43:27.971Z,99283.00
2023-01-02T21:48:34.201Z,99282.34
2023-01-02T21:53:37.152Z,99289.34
2023-01-02T21:58:39.840Z,99293.09
2023-01-02T22:03:43.949Z,99306.44
2023-01-02T22:08:46.804Z,99301.34
2023-01-02T22:13:49.542Z,99315.28
2023-01-02T22:18:53.654Z,99307.59
2023-01-02T22:23:56.405Z,99310.38
2023-01-02T22:28:59.672Z,99314.03
2023-01-02T22:34:04.529Z,99326.31
2023-01-02T22:39:27.538Z,99327.38
2023-01-02T22:44:31.937Z,99343.44
2023-01-02T22:49:39.539Z,99348.00
2023-01-02T22:54:42.291Z,99355.03
2023-01-02T22:59:45.095Z,99359.75
2023-01-02T23:04:50.971Z,99361.56
2023-01-02T23:09:53.709Z,99357.19
2023-01-02T23:14:56.520Z,99352.00
2023-01-02T23:20:00.635Z,99361.56
2023-01-02T23:25:04.636Z,99374.19
2023-01-02T23:30:08.600Z,99368.94
2023-01-02T23:35:12.817Z,99380.53
2023-01-02T23:40:15.683Z,99386.53
2023-01-02T23:45:18.522Z,99390.88
2023-01-02T23:50:22.652Z,99396.38
2023-01-02T23:55:25.437Z,99391.06
